^^
Saratoga-Weather Station Historical Data
Daily Summary for July 7, 2020 Units:  Both    English   Metric
Daily Weekly Monthly Yearly Custom
  High: Low: Average:
Temperature: 53.4 °F /  11.9 °C 37.8 °F /  3.2 °C 43.9 °F /  6.6 °C
Dew Point: 47.3 °F /  8.5 °C 36.5 °F /  2.5 °C 41.4 °F /  5.2 °C
Humidity: 96% 76% 91%
Wind Speed: 6mph /  9.7km/h - 0.4mph /  0.6km/h
Wind Gust: 7mph /  11.3km/h - -
Wind- - East
Pressure: 30.3 in /  1026.8 hPa 30.2 in /  1022.4 hPa -
Precipitation: 0 in /  0.0 mm    
Historical Graphs
 
 
Tabular Data for July 7, 2020
Time Temperature Dew Point Pressure Wind Wind Speed Wind Gust Humidity Rainfall Rate (Hourly) solar
00:00 39.6 °F /  4.2 °C 37.9 °F /  3.3 °C 30.3in /  1026.8hPa Calm     94% 0in /  0.0mm 0 W/m2
00:06 39.6 °F /  4.2 °C 37.9 °F /  3.3 °C 30.3in /  1026.8hPa Calm     94% 0in /  0.0mm 0 W/m2
00:11 39.6 °F /  4.2 °C 37.9 °F /  3.3 °C 30.3in /  1026.8hPa Calm     94% 0in /  0.0mm 0 W/m2
00:16 39.4 °F /  4.1 °C 37.8 °F /  3.2 °C 30.3in /  1026.8hPa Calm     94% 0in /  0.0mm 0 W/m2
00:21 39.4 °F /  4.1 °C 37.8 °F /  3.2 °C 30.3in /  1026.8hPa Calm     94% 0in /  0.0mm 0 W/m2
00:26 39.2 °F /  4 °C 37.6 °F /  3.1 °C 30.3in /  1026.8hPa Calm     94% 0in /  0.0mm 0 W/m2
00:31 39.2 °F /  4 °C 37.6 °F /  3.1 °C 30.3in /  1026.8hPa Calm     94% 0in /  0.0mm 0 W/m2
00:36 39.2 °F /  4 °C 37.6 °F /  3.1 °C 30.3in /  1026.8hPa Calm     94% 0in /  0.0mm 0 W/m2
00:41 39.4 °F /  4.1 °C 37.8 °F /  3.2 °C 30.3in /  1026.8hPa Calm     94% 0in /  0.0mm 0 W/m2
00:46 39.4 °F /  4.1 °C 38.1 °F /  3.4 °C 30.3in /  1026.4hPa Calm     95% 0in /  0.0mm 0 W/m2
00:51 39.6 °F /  4.2 °C 38.3 °F /  3.5 °C 30.3in /  1026.4hPa Calm     95% 0in /  0.0mm 0 W/m2
00:56 39.7 °F /  4.3 °C 38.5 °F /  3.6 °C 30.3in /  1026.4hPa East 0.9mph /  1.4km/h 2mph /  3.2km/h 95% 0in /  0.0mm 0 W/m2
01:02 39.7 °F /  4.3 °C 38.5 °F /  3.6 °C 30.3in /  1026.4hPa ESE 0.9mph /  1.4km/h 2mph /  3.2km/h 95% 0in /  0.0mm 0 W/m2
01:07 39.7 °F /  4.3 °C 38.1 °F /  3.4 °C 30.3in /  1026.4hPa ESE 3mph /  4.8km/h 3mph /  4.8km/h 94% 0in /  0.0mm 0 W/m2
01:12 39.7 °F /  4.3 °C 38.1 °F /  3.4 °C 30.3in /  1026.4hPa Calm   1mph /  1.6km/h 94% 0in /  0.0mm 0 W/m2
01:17 39.7 °F /  4.3 °C 38.1 °F /  3.4 °C 30.3in /  1026.1hPa ESE 0.9mph /  1.4km/h 2mph /  3.2km/h 94% 0in /  0.0mm 0 W/m2
01:22 39.7 °F /  4.3 °C 38.1 °F /  3.4 °C 30.3in /  1026.1hPa Calm     94% 0in /  0.0mm 0 W/m2
01:27 39.7 °F /  4.3 °C 38.1 °F /  3.4 °C 30.3in /  1026.1hPa Calm   2mph /  3.2km/h 94% 0in /  0.0mm 0 W/m2
01:32 39.6 °F /  4.2 °C 37.9 °F /  3.3 °C 30.3in /  1026.1hPa Calm   1mph /  1.6km/h 94% 0in /  0.0mm 0 W/m2
01:37 39.6 °F /  4.2 °C 37.9 °F /  3.3 °C 30.3in /  1026.1hPa Calm   1mph /  1.6km/h 94% 0in /  0.0mm 0 W/m2
01:42 39.6 °F /  4.2 °C 37.9 °F /  3.3 °C 30.3in /  1026.1hPa Calm   2mph /  3.2km/h 94% 0in /  0.0mm 0 W/m2
01:47 39.6 °F /  4.2 °C 37.9 °F /  3.3 °C 30.3in /  1026.1hPa Calm   1mph /  1.6km/h 94% 0in /  0.0mm 0 W/m2
01:52 39.6 °F /  4.2 °C 37.9 °F /  3.3 °C 30.3in /  1026.1hPa Calm   2mph /  3.2km/h 94% 0in /  0.0mm 0 W/m2
01:57 39.6 °F /  4.2 °C 37.9 °F /  3.3 °C 30.3in /  1026.1hPa Calm   1mph /  1.6km/h 94% 0in /  0.0mm 0 W/m2
02:02 39.6 °F /  4.2 °C 37.9 °F /  3.3 °C 30.3in /  1026.1hPa Calm   2mph /  3.2km/h 94% 0in /  0.0mm 0 W/m2
02:07 39.4 °F /  4.1 °C 37.8 °F /  3.2 °C 30.3in /  1026.1hPa Calm     94% 0in /  0.0mm 0 W/m2
02:12 39.4 °F /  4.1 °C 37.8 °F /  3.2 °C 30.3in /  1026.1hPa Calm     94% 0in /  0.0mm 0 W/m2
02:17 39.4 °F /  4.1 °C 37.8 °F /  3.2 °C 30.3in /  1026.1hPa Calm   1mph /  1.6km/h 94% 0in /  0.0mm 0 W/m2
02:22 39.2 °F /  4 °C 37.6 °F /  3.1 °C 30.3in /  1026.1hPa Calm   2mph /  3.2km/h 94% 0in /  0.0mm 0 W/m2
02:27 39.2 °F /  4 °C 37.6 °F /  3.1 °C 30.3in /  1026.1hPa ESE 0.9mph /  1.4km/h 2mph /  3.2km/h 94% 0in /  0.0mm 0 W/m2
02:32 39.2 °F /  4 °C 37.6 °F /  3.1 °C 30.3in /  1026.1hPa Calm     94% 0in /  0.0mm 0 W/m2
02:37 39 °F /  3.9 °C 37.4 °F /  3 °C 30.3in /  1026.1hPa Calm     94% 0in /  0.0mm 0 W/m2
02:42 39 °F /  3.9 °C 37.4 °F /  3 °C 30.3in /  1026.1hPa Calm     94% 0in /  0.0mm 0 W/m2
02:47 39 °F /  3.9 °C 37.4 °F /  3 °C 30.3in /  1026.1hPa Calm     94% 0in /  0.0mm 0 W/m2
02:52 39 °F /  3.9 °C 37.4 °F /  3 °C 30.3in /  1026.1hPa Calm     94% 0in /  0.0mm 0 W/m2
02:57 38.8 °F /  3.8 °C 37.2 °F /  2.9 °C 30.3in /  1026.1hPa ESE 2mph /  3.2km/h 2mph /  3.2km/h 94% 0in /  0.0mm 0 W/m2
03:02 38.8 °F /  3.8 °C 37.6 °F /  3.1 °C 30.3in /  1026.1hPa Calm   2mph /  3.2km/h 95% 0in /  0.0mm 0 W/m2
03:08 38.8 °F /  3.8 °C 37.6 °F /  3.1 °C 30.3in /  1025.7hPa ESE 0.9mph /  1.4km/h 2mph /  3.2km/h 95% 0in /  0.0mm 0 W/m2
03:13 38.8 °F /  3.8 °C 37.6 °F /  3.1 °C 30.3in /  1025.7hPa Calm   1mph /  1.6km/h 95% 0in /  0.0mm 0 W/m2
03:18 38.8 °F /  3.8 °C 37.6 °F /  3.1 °C 30.3in /  1025.7hPa ESE 0.9mph /  1.4km/h 2mph /  3.2km/h 95% 0in /  0.0mm 0 W/m2
03:23 38.8 °F /  3.8 °C 37.2 °F /  2.9 °C 30.3in /  1025.7hPa Calm     94% 0in /  0.0mm 0 W/m2
03:28 38.8 °F /  3.8 °C 37.2 °F /  2.9 °C 30.3in /  1025.7hPa Calm     94% 0in /  0.0mm 0 W/m2
03:33 38.8 °F /  3.8 °C 37.2 °F /  2.9 °C 30.3in /  1025.7hPa Calm     94% 0in /  0.0mm 0 W/m2
03:38 38.7 °F /  3.7 °C 37 °F /  2.8 °C 30.3in /  1025.7hPa Calm     94% 0in /  0.0mm 0 W/m2
03:43 38.7 °F /  3.7 °C 37.4 °F /  3 °C 30.3in /  1025.7hPa Calm     95% 0in /  0.0mm 0 W/m2
03:48 38.7 °F /  3.7 °C 37.4 °F /  3 °C 30.3in /  1025.7hPa Calm     95% 0in /  0.0mm 0 W/m2
03:53 38.7 °F /  3.7 °C 37.4 °F /  3 °C 30.3in /  1025.7hPa Calm     95% 0in /  0.0mm 0 W/m2
03:58 38.7 °F /  3.7 °C 37.4 °F /  3 °C 30.3in /  1025.7hPa Calm     95% 0in /  0.0mm 0 W/m2
04:03 38.7 °F /  3.7 °C 37.4 °F /  3 °C 30.3in /  1025.7hPa Calm     95% 0in /  0.0mm 0 W/m2
04:08 38.7 °F /  3.7 °C 37.4 °F /  3 °C 30.3in /  1025.7hPa Calm     95% 0in /  0.0mm 0 W/m2
04:13 38.7 °F /  3.7 °C 37.4 °F /  3 °C 30.3in /  1025.7hPa Calm     95% 0in /  0.0mm 0 W/m2
04:18 38.7 °F /  3.7 °C 37.4 °F /  3 °C 30.3in /  1025.7hPa Calm   1mph /  1.6km/h 95% 0in /  0.0mm 0 W/m2
04:23 38.7 °F /  3.7 °C 37.4 °F /  3 °C 30.3in /  1025.7hPa Calm     95% 0in /  0.0mm 0 W/m2
04:28 38.7 °F /  3.7 °C 37.4 °F /  3 °C 30.3in /  1025.7hPa ESE 0.9mph /  1.4km/h 2mph /  3.2km/h 95% 0in /  0.0mm 0 W/m2
04:33 38.7 °F /  3.7 °C 37.4 °F /  3 °C 30.3in /  1025.7hPa Calm     95% 0in /  0.0mm 0 W/m2
04:38 38.7 °F /  3.7 °C 37.4 °F /  3 °C 30.3in /  1026.1hPa Calm   2mph /  3.2km/h 95% 0in /  0.0mm 0 W/m2
04:43 38.5 °F /  3.6 °C 37.2 °F /  2.9 °C 30.3in /  1026.1hPa Calm     95% 0in /  0.0mm 0 W/m2
04:48 38.5 °F /  3.6 °C 37.2 °F /  2.9 °C 30.3in /  1025.7hPa Calm   1mph /  1.6km/h 95% 0in /  0.0mm 0 W/m2
04:53 38.5 °F /  3.6 °C 37.2 °F /  2.9 °C 30.3in /  1025.7hPa Calm     95% 0in /  0.0mm 0 W/m2
04:58 38.3 °F /  3.5 °C 37 °F /  2.8 °C 30.3in /  1025.7hPa Calm   1mph /  1.6km/h 95% 0in /  0.0mm 0 W/m2
05:03 38.5 °F /  3.6 °C 37.2 °F /  2.9 °C 30.3in /  1025.7hPa Calm     95% 0in /  0.0mm 0 W/m2
05:08 38.3 °F /  3.5 °C 37 °F /  2.8 °C 30.3in /  1025.7hPa Calm   1mph /  1.6km/h 95% 0in /  0.0mm 0 W/m2
05:13 38.5 °F /  3.6 °C 37.2 °F /  2.9 °C 30.3in /  1025.7hPa Calm     95% 0in /  0.0mm 0 W/m2
05:18 38.5 °F /  3.6 °C 37.2 °F /  2.9 °C 30.3in /  1025.7hPa Calm     95% 0in /  0.0mm 0 W/m2
05:23 38.7 °F /  3.7 °C 37.4 °F /  3 °C 30.3in /  1025.7hPa Calm     95% 0in /  0.0mm 0 W/m2
05:28 38.7 °F /  3.7 °C 37.4 °F /  3 °C 30.3in /  1025.7hPa Calm     95% 0in /  0.0mm 0 W/m2
05:33 38.7 °F /  3.7 °C 37.4 °F /  3 °C 30.3in /  1025.7hPa Calm     95% 0in /  0.0mm 0 W/m2
05:38 38.7 °F /  3.7 °C 37.4 °F /  3 °C 30.3in /  1025.7hPa Calm     95% 0in /  0.0mm 0 W/m2
05:43 38.5 °F /  3.6 °C 37.2 °F /  2.9 °C 30.3in /  1025.7hPa Calm     95% 0in /  0.0mm 0 W/m2
05:48 38.5 °F /  3.6 °C 37.2 °F /  2.9 °C 30.3in /  1025.7hPa Calm     95% 0in /  0.0mm 0 W/m2
05:53 38.5 °F /  3.6 °C 37.2 °F /  2.9 °C 30.3in /  1025.7hPa Calm     95% 0in /  0.0mm 0 W/m2
05:58 38.5 °F /  3.6 °C 37.2 °F /  2.9 °C 30.3in /  1025.7hPa Calm     95% 0in /  0.0mm 0 W/m2
06:03 38.5 °F /  3.6 °C 37.2 °F /  2.9 °C 30.3in /  1025.4hPa Calm     95% 0in /  0.0mm 0 W/m2
06:08 38.5 °F /  3.6 °C 37.2 °F /  2.9 °C 30.3in /  1025.4hPa Calm     95% 0in /  0.0mm 0 W/m2
06:13 38.5 °F /  3.6 °C 37.2 °F /  2.9 °C 30.3in /  1025.4hPa Calm     95% 0in /  0.0mm 0 W/m2
06:18 38.5 °F /  3.6 °C 37.2 °F /  2.9 °C 30.3in /  1025.4hPa Calm     95% 0in /  0.0mm 0 W/m2
06:23 38.5 °F /  3.6 °C 37.2 °F /  2.9 °C 30.3in /  1025.4hPa Calm     95% 0in /  0.0mm 0 W/m2
06:28 38.5 °F /  3.6 °C 37.2 °F /  2.9 °C 30.3in /  1025.4hPa Calm     95% 0in /  0.0mm 0 W/m2
06:33 38.5 °F /  3.6 °C 37.2 °F /  2.9 °C 30.3in /  1025.4hPa Calm     95% 0in /  0.0mm 0 W/m2
06:39 38.3 °F /  3.5 °C 37 °F /  2.8 °C 30.3in /  1025.1hPa Calm     95% 0in /  0.0mm 0 W/m2
06:44 38.1 °F /  3.4 °C 36.9 °F /  2.7 °C 30.3in /  1025.1hPa Calm     95% 0in /  0.0mm 0 W/m2
06:49 38.1 °F /  3.4 °C 36.9 °F /  2.7 °C 30.3in /  1025.1hPa Calm     95% 0in /  0.0mm 0 W/m2
06:54 37.9 °F /  3.3 °C 36.7 °F /  2.6 °C 30.3in /  1025.4hPa Calm     95% 0in /  0.0mm 0 W/m2
06:59 37.8 °F /  3.2 °C 36.5 °F /  2.5 °C 30.3in /  1025.1hPa Calm     95% 0in /  0.0mm 0 W/m2
07:04 37.8 °F /  3.2 °C 36.5 °F /  2.5 °C 30.3in /  1025.1hPa Calm     95% 0in /  0.0mm 0 W/m2
07:09 37.8 °F /  3.2 °C 36.5 °F /  2.5 °C 30.3in /  1025.4hPa Calm     95% 0in /  0.0mm 0 W/m2
07:14 37.8 °F /  3.2 °C 36.5 °F /  2.5 °C 30.3in /  1025.4hPa Calm     95% 0in /  0.0mm 0 W/m2
07:19 37.8 °F /  3.2 °C 36.5 °F /  2.5 °C 30.3in /  1025.4hPa Calm     95% 0in /  0.0mm 0 W/m2
07:24 37.8 °F /  3.2 °C 36.7 °F /  2.6 °C 30.3in /  1025.4hPa Calm     96% 0in /  0.0mm 0 W/m2
07:29 37.9 °F /  3.3 °C 36.9 °F /  2.7 °C 30.3in /  1025.4hPa Calm     96% 0in /  0.0mm 0 W/m2
07:34 37.9 °F /  3.3 °C 36.9 °F /  2.7 °C 30.3in /  1025.4hPa Calm     96% 0in /  0.0mm 0 W/m2
07:39 38.1 °F /  3.4 °C 37 °F /  2.8 °C 30.3in /  1025.4hPa Calm     96% 0in /  0.0mm 5 W/m2
07:44 38.1 °F /  3.4 °C 37 °F /  2.8 °C 30.3in /  1025.7hPa Calm     96% 0in /  0.0mm 7 W/m2
07:49 38.1 °F /  3.4 °C 37 °F /  2.8 °C 30.3in /  1025.7hPa Calm     96% 0in /  0.0mm 9 W/m2
07:54 38.1 °F /  3.4 °C 37 °F /  2.8 °C 30.3in /  1025.7hPa Calm     96% 0in /  0.0mm 12 W/m2
07:59 38.1 °F /  3.4 °C 37 °F /  2.8 °C 30.3in /  1025.7hPa Calm     96% 0in /  0.0mm 16 W/m2
08:04 38.3 °F /  3.5 °C 37.2 °F /  2.9 °C 30.3in /  1025.7hPa Calm   2mph /  3.2km/h 96% 0in /  0.0mm 18 W/m2
08:09 38.5 °F /  3.6 °C 37.4 °F /  3 °C 30.3in /  1025.7hPa ESE 2mph /  3.2km/h 2mph /  3.2km/h 96% 0in /  0.0mm 21 W/m2
08:14 38.7 °F /  3.7 °C 37.6 °F /  3.1 °C 30.3in /  1025.7hPa Calm     96% 0in /  0.0mm 25 W/m2
08:19 38.8 °F /  3.8 °C 37.8 °F /  3.2 °C 30.3in /  1025.7hPa Calm   2mph /  3.2km/h 96% 0in /  0.0mm 26 W/m2
08:24 39 °F /  3.9 °C 37.9 °F /  3.3 °C 30.3in /  1025.7hPa Calm     96% 0in /  0.0mm 30 W/m2
08:29 39 °F /  3.9 °C 37.9 °F /  3.3 °C 30.3in /  1025.7hPa Calm   1mph /  1.6km/h 96% 0in /  0.0mm 33 W/m2
08:34 39.4 °F /  4.1 °C 38.3 °F /  3.5 °C 30.3in /  1025.7hPa Calm     96% 0in /  0.0mm 35 W/m2
08:39 39.4 °F /  4.1 °C 38.3 °F /  3.5 °C 30.3in /  1025.4hPa Calm     96% 0in /  0.0mm 39 W/m2
08:44 39.6 °F /  4.2 °C 38.5 °F /  3.6 °C 30.3in /  1025.4hPa Calm   2mph /  3.2km/h 96% 0in /  0.0mm 42 W/m2
08:55 39.7 °F /  4.3 °C 38.7 °F /  3.7 °C 30.3in /  1025.4hPa Calm   1mph /  1.6km/h 96% 0in /  0.0mm 58 W/m2
09:00 39.9 °F /  4.4 °C 38.8 °F /  3.8 °C 30.3in /  1025.4hPa Calm     96% 0in /  0.0mm 49 W/m2
09:05 40.1 °F /  4.5 °C 39 °F /  3.9 °C 30.3in /  1025.4hPa ENE 2mph /  3.2km/h 2mph /  3.2km/h 96% 0in /  0.0mm 51 W/m2
09:10 40.3 °F /  4.6 °C 39.2 °F /  4 °C 30.3in /  1025.4hPa East 0.9mph /  1.4km/h 2mph /  3.2km/h 96% 0in /  0.0mm 53 W/m2
09:15 40.5 °F /  4.7 °C 39.4 °F /  4.1 °C 30.3in /  1025.4hPa Calm   1mph /  1.6km/h 96% 0in /  0.0mm 54 W/m2
09:20 40.5 °F /  4.7 °C 39.4 °F /  4.1 °C 30.3in /  1025.4hPa East 0.9mph /  1.4km/h 1mph /  1.6km/h 96% 0in /  0.0mm 56 W/m2
09:25 40.6 °F /  4.8 °C 39.6 °F /  4.2 °C 30.3in /  1025.4hPa East 0.9mph /  1.4km/h 1mph /  1.6km/h 96% 0in /  0.0mm 58 W/m2
09:30 41 °F /  5 °C 39.9 °F /  4.4 °C 30.3in /  1025.4hPa Calm   3mph /  4.8km/h 96% 0in /  0.0mm 58 W/m2
09:35 41.4 °F /  5.2 °C 40.3 °F /  4.6 °C 30.3in /  1025.7hPa Calm     96% 0in /  0.0mm 62 W/m2
09:40 41.5 °F /  5.3 °C 40.5 °F /  4.7 °C 30.3in /  1025.4hPa East 0.9mph /  1.4km/h 1mph /  1.6km/h 96% 0in /  0.0mm 62 W/m2
09:45 41.7 °F /  5.4 °C 40.6 °F /  4.8 °C 30.3in /  1025.4hPa Calm   1mph /  1.6km/h 96% 0in /  0.0mm 63 W/m2
09:50 42.1 °F /  5.6 °C 41 °F /  5 °C 30.3in /  1025.4hPa Calm   2mph /  3.2km/h 96% 0in /  0.0mm 63 W/m2
09:55 42.3 °F /  5.7 °C 41 °F /  5 °C 30.3in /  1025.4hPa Calm   2mph /  3.2km/h 95% 0in /  0.0mm 65 W/m2
10:00 42.4 °F /  5.8 °C 41.2 °F /  5.1 °C 30.3in /  1025.4hPa SE 2.9mph /  4.7km/h 3mph /  4.8km/h 95% 0in /  0.0mm 69 W/m2
10:05 42.8 °F /  6 °C 41.5 °F /  5.3 °C 30.3in /  1025.4hPa SE 0.9mph /  1.4km/h 1mph /  1.6km/h 95% 0in /  0.0mm 76 W/m2
10:10 43 °F /  6.1 °C 41.7 °F /  5.4 °C 30.3in /  1025.4hPa ESE 0.9mph /  1.4km/h 3mph /  4.8km/h 95% 0in /  0.0mm 70 W/m2
10:15 43.3 °F /  6.3 °C 41.7 °F /  5.4 °C 30.3in /  1025.7hPa East 2.9mph /  4.7km/h 3mph /  4.8km/h 94% 0in /  0.0mm 69 W/m2
10:20 43.7 °F /  6.5 °C 42.1 °F /  5.6 °C 30.3in /  1025.4hPa ESE 0.9mph /  1.4km/h 2mph /  3.2km/h 94% 0in /  0.0mm 70 W/m2
10:25 44.1 °F /  6.7 °C 42.1 °F /  5.6 °C 30.3in /  1025.7hPa ESE 2.9mph /  4.7km/h 4mph /  6.4km/h 93% 0in /  0.0mm 77 W/m2
10:30 44.2 °F /  6.8 °C 42.3 °F /  5.7 °C 30.3in /  1025.4hPa NE 2mph /  3.2km/h 3mph /  4.8km/h 93% 0in /  0.0mm 67 W/m2
10:35 44.8 °F /  7.1 °C 42.6 °F /  5.9 °C 30.3in /  1025.4hPa ESE 2.9mph /  4.7km/h 3mph /  4.8km/h 92% 0in /  0.0mm 74 W/m2
10:40 45 °F /  7.2 °C 42.4 °F /  5.8 °C 30.3in /  1025.4hPa ENE 0.9mph /  1.4km/h 4mph /  6.4km/h 91% 0in /  0.0mm 76 W/m2
10:45 45.1 °F /  7.3 °C 42.4 °F /  5.8 °C 30.3in /  1025.4hPa Calm   1mph /  1.6km/h 90% 0in /  0.0mm 88 W/m2
10:50 45.3 °F /  7.4 °C 42.3 °F /  5.7 °C 30.3in /  1025.1hPa ENE 0.9mph /  1.4km/h 7mph /  11.3km/h 89% 0in /  0.0mm 79 W/m2
10:55 45.7 °F /  7.6 °C 42.6 °F /  5.9 °C 30.3in /  1025.1hPa Calm   3mph /  4.8km/h 89% 0in /  0.0mm 84 W/m2
11:00 45.9 °F /  7.7 °C 42.8 °F /  6 °C 30.3in /  1025.1hPa East 0.9mph /  1.4km/h 6mph /  9.7km/h 89% 0in /  0.0mm 91 W/m2
11:05 46 °F /  7.8 °C 43 °F /  6.1 °C 30.3in /  1025.1hPa ESE 2mph /  3.2km/h 3mph /  4.8km/h 89% 0in /  0.0mm 102 W/m2
11:10 46.2 °F /  7.9 °C 42.8 °F /  6 °C 30.3in /  1025.1hPa Calm   4mph /  6.4km/h 88% 0in /  0.0mm 104 W/m2
11:15 46.6 °F /  8.1 °C 43.2 °F /  6.2 °C 30.3in /  1025.1hPa Calm   1mph /  1.6km/h 88% 0in /  0.0mm 104 W/m2
11:20 46.9 °F /  8.3 °C 43.3 °F /  6.3 °C 30.3in /  1025.1hPa East 0.9mph /  1.4km/h 4mph /  6.4km/h 87% 0in /  0.0mm 100 W/m2
11:25 47.1 °F /  8.4 °C 43.5 °F /  6.4 °C 30.3in /  1024.7hPa ESE 0.9mph /  1.4km/h 3mph /  4.8km/h 87% 0in /  0.0mm 100 W/m2
11:30 47.3 °F /  8.5 °C 43.3 °F /  6.3 °C 30.3in /  1025.1hPa East 2.9mph /  4.7km/h 4mph /  6.4km/h 86% 0in /  0.0mm 102 W/m2
11:36 47.7 °F /  8.7 °C 43.3 °F /  6.3 °C 30.3in /  1024.7hPa Calm   7mph /  11.3km/h 85% 0in /  0.0mm 95 W/m2
11:41 47.7 °F /  8.7 °C 43.3 °F /  6.3 °C 30.3in /  1024.7hPa ESE 2mph /  3.2km/h 3mph /  4.8km/h 85% 0in /  0.0mm 86 W/m2
11:46 47.8 °F /  8.8 °C 43.5 °F /  6.4 °C 30.3in /  1024.7hPa ENE 2mph /  3.2km/h 2mph /  3.2km/h 85% 0in /  0.0mm 105 W/m2
11:51 48 °F /  8.9 °C 43.3 °F /  6.3 °C 30.3in /  1024.4hPa NNE 2mph /  3.2km/h 2mph /  3.2km/h 84% 0in /  0.0mm 83 W/m2
11:56 48.4 °F /  9.1 °C 43.7 °F /  6.5 °C 30.3in /  1024.4hPa NE 0.9mph /  1.4km/h 4mph /  6.4km/h 84% 0in /  0.0mm 84 W/m2
12:01 48.6 °F /  9.2 °C 43.9 °F /  6.6 °C 30.3in /  1024.4hPa NE 0.9mph /  1.4km/h 4mph /  6.4km/h 84% 0in /  0.0mm 88 W/m2
12:06 48.7 °F /  9.3 °C 44.1 °F /  6.7 °C 30.3in /  1024.4hPa Calm   2mph /  3.2km/h 84% 0in /  0.0mm 98 W/m2
12:11 48.7 °F /  9.3 °C 43.9 °F /  6.6 °C 30.3in /  1024.4hPa ESE 2.9mph /  4.7km/h 5mph /  8km/h 83% 0in /  0.0mm 79 W/m2
12:16 48.9 °F /  9.4 °C 44.1 °F /  6.7 °C 30.3in /  1024.4hPa SE 0.9mph /  1.4km/h 3mph /  4.8km/h 83% 0in /  0.0mm 79 W/m2
12:21 49.1 °F /  9.5 °C 44.2 °F /  6.8 °C 30.3in /  1024.4hPa Calm   2mph /  3.2km/h 83% 0in /  0.0mm 72 W/m2
12:26 49.3 °F /  9.6 °C 44.1 °F /  6.7 °C 30.2in /  1024.0hPa SE 2mph /  3.2km/h 3mph /  4.8km/h 82% 0in /  0.0mm 77 W/m2
12:31 49.5 °F /  9.7 °C 44.2 °F /  6.8 °C 30.2in /  1024.0hPa East 0.9mph /  1.4km/h 4mph /  6.4km/h 82% 0in /  0.0mm 74 W/m2
12:36 49.6 °F /  9.8 °C 44.4 °F /  6.9 °C 30.2in /  1024.0hPa Calm   1mph /  1.6km/h 82% 0in /  0.0mm 72 W/m2
12:41 49.8 °F /  9.9 °C 44.6 °F /  7 °C 30.2in /  1024.0hPa SE 2mph /  3.2km/h 4mph /  6.4km/h 82% 0in /  0.0mm 70 W/m2
12:46 50 °F /  10 °C 44.8 °F /  7.1 °C 30.2in /  1024.0hPa East 2.9mph /  4.7km/h 3mph /  4.8km/h 82% 0in /  0.0mm 69 W/m2
12:51 50.2 °F /  10.1 °C 44.6 °F /  7 °C 30.2in /  1024.0hPa SSE 0.9mph /  1.4km/h 4mph /  6.4km/h 81% 0in /  0.0mm 72 W/m2
12:56 50.4 °F /  10.2 °C 44.8 °F /  7.1 °C 30.2in /  1023.7hPa ESE 0.9mph /  1.4km/h 3mph /  4.8km/h 81% 0in /  0.0mm 74 W/m2
13:01 50.5 °F /  10.3 °C 45 °F /  7.2 °C 30.2in /  1023.7hPa ESE 0.9mph /  1.4km/h 2mph /  3.2km/h 81% 0in /  0.0mm 83 W/m2
13:06 50.7 °F /  10.4 °C 45.1 °F /  7.3 °C 30.2in /  1023.7hPa SE 2mph /  3.2km/h 4mph /  6.4km/h 81% 0in /  0.0mm 97 W/m2
13:11 51.1 °F /  10.6 °C 45.1 °F /  7.3 °C 30.2in /  1023.7hPa NE 0.9mph /  1.4km/h 3mph /  4.8km/h 80% 0in /  0.0mm 72 W/m2
13:16 51.3 °F /  10.7 °C 45.3 °F /  7.4 °C 30.2in /  1023.7hPa Calm   3mph /  4.8km/h 80% 0in /  0.0mm 69 W/m2
13:21 51.3 °F /  10.7 °C 45.3 °F /  7.4 °C 30.2in /  1023.7hPa Calm   2mph /  3.2km/h 80% 0in /  0.0mm 72 W/m2
13:26 51.4 °F /  10.8 °C 45.5 °F /  7.5 °C 30.2in /  1023.4hPa SE 0.9mph /  1.4km/h 3mph /  4.8km/h 80% 0in /  0.0mm 74 W/m2
13:31 51.4 °F /  10.8 °C 45.5 °F /  7.5 °C 30.2in /  1023.4hPa East 0.9mph /  1.4km/h 1mph /  1.6km/h 80% 0in /  0.0mm 83 W/m2
13:36 51.6 °F /  10.9 °C 45.7 °F /  7.6 °C 30.2in /  1023.4hPa ENE 2mph /  3.2km/h 3mph /  4.8km/h 80% 0in /  0.0mm 97 W/m2
13:41 52 °F /  11.1 °C 46 °F /  7.8 °C 30.2in /  1023.4hPa ENE 0.9mph /  1.4km/h 5mph /  8km/h 80% 0in /  0.0mm 105 W/m2
13:46 52.3 °F /  11.3 °C 46 °F /  7.8 °C 30.2in /  1023.4hPa East 2mph /  3.2km/h 3mph /  4.8km/h 79% 0in /  0.0mm 95 W/m2
13:51 52.3 °F /  11.3 °C 46 °F /  7.8 °C 30.2in /  1023.4hPa East 2mph /  3.2km/h 4mph /  6.4km/h 79% 0in /  0.0mm 95 W/m2
13:56 52.7 °F /  11.5 °C 46 °F /  7.8 °C 30.2in /  1023.4hPa East 0.9mph /  1.4km/h 4mph /  6.4km/h 78% 0in /  0.0mm 91 W/m2
14:01 52.9 °F /  11.6 °C 46.2 °F /  7.9 °C 30.2in /  1023.4hPa NE 0.9mph /  1.4km/h 3mph /  4.8km/h 78% 0in /  0.0mm 88 W/m2
14:06 53.1 °F /  11.7 °C 46.4 °F /  8 °C 30.2in /  1023.0hPa ENE 2mph /  3.2km/h 3mph /  4.8km/h 78% 0in /  0.0mm 81 W/m2
14:11 53.2 °F /  11.8 °C 46.6 °F /  8.1 °C 30.2in /  1023.0hPa ENE 2.9mph /  4.7km/h 3mph /  4.8km/h 78% 0in /  0.0mm 81 W/m2
14:16 53.2 °F /  11.8 °C 46.2 °F /  7.9 °C 30.2in /  1023.0hPa Calm   1mph /  1.6km/h 77% 0in /  0.0mm 70 W/m2
14:21 53.4 °F /  11.9 °C 46.4 °F /  8 °C 30.2in /  1023.0hPa Calm   2mph /  3.2km/h 77% 0in /  0.0mm 67 W/m2
14:26 53.4 °F /  11.9 °C 46 °F /  7.8 °C 30.2in /  1023.0hPa ENE 0.9mph /  1.4km/h 2mph /  3.2km/h 76% 0in /  0.0mm 63 W/m2
14:31 53.4 °F /  11.9 °C 46.8 °F /  8.2 °C 30.2in /  1023.0hPa East 2mph /  3.2km/h 2mph /  3.2km/h 78% 0in /  0.0mm 67 W/m2
14:36 53.4 °F /  11.9 °C 47.1 °F /  8.4 °C 30.2in /  1023.0hPa ENE 0.9mph /  1.4km/h 1mph /  1.6km/h 79% 0in /  0.0mm 67 W/m2
14:41 53.2 °F /  11.8 °C 46.9 °F /  8.3 °C 30.2in /  1023.0hPa Calm     79% 0in /  0.0mm 65 W/m2
14:46 53.1 °F /  11.7 °C 47.1 °F /  8.4 °C 30.2in /  1022.7hPa Calm   3mph /  4.8km/h 80% 0in /  0.0mm 63 W/m2
14:51 53.1 °F /  11.7 °C 47.1 °F /  8.4 °C 30.2in /  1022.7hPa ENE 0.9mph /  1.4km/h 2mph /  3.2km/h 80% 0in /  0.0mm 60 W/m2
14:56 52.9 °F /  11.6 °C 46.9 °F /  8.3 °C 30.2in /  1023.0hPa East 6mph /  9.7km/h 6mph /  9.7km/h 80% 0in /  0.0mm 58 W/m2
15:01 52.9 °F /  11.6 °C 47.3 °F /  8.5 °C 30.2in /  1022.7hPa Calm     81% 0in /  0.0mm 60 W/m2
15:07 52.5 °F /  11.4 °C 46.9 °F /  8.3 °C 30.2in /  1023.0hPa Calm   2mph /  3.2km/h 81% 0in /  0.0mm 58 W/m2
15:12 52.5 °F /  11.4 °C 46.9 °F /  8.3 °C 30.2in /  1022.7hPa ESE 0.9mph /  1.4km/h 1mph /  1.6km/h 81% 0in /  0.0mm 54 W/m2
15:17 52.3 °F /  11.3 °C 46.9 °F /  8.3 °C 30.2in /  1022.7hPa Calm   1mph /  1.6km/h 82% 0in /  0.0mm 51 W/m2
15:22 52.2 °F /  11.2 °C 46.8 °F /  8.2 °C 30.2in /  1022.7hPa Calm     82% 0in /  0.0mm 47 W/m2
15:27 52 °F /  11.1 °C 46.9 °F /  8.3 °C 30.2in /  1022.7hPa Calm     83% 0in /  0.0mm 46 W/m2
15:32 51.8 °F /  11 °C 46.8 °F /  8.2 °C 30.2in /  1022.7hPa Calm     83% 0in /  0.0mm 44 W/m2
15:37 51.4 °F /  10.8 °C 46.8 °F /  8.2 °C 30.2in /  1022.7hPa Calm     84% 0in /  0.0mm 44 W/m2
15:42 51.3 °F /  10.7 °C 46.6 °F /  8.1 °C 30.2in /  1022.7hPa ESE 0.9mph /  1.4km/h 2mph /  3.2km/h 84% 0in /  0.0mm 44 W/m2
15:47 51.3 °F /  10.7 °C 46.9 °F /  8.3 °C 30.2in /  1022.7hPa Calm   1mph /  1.6km/h 85% 0in /  0.0mm 46 W/m2
15:52 50.9 °F /  10.5 °C 46.6 °F /  8.1 °C 30.2in /  1022.7hPa Calm   1mph /  1.6km/h 85% 0in /  0.0mm 47 W/m2
15:57 50.7 °F /  10.4 °C 46.8 °F /  8.2 °C 30.2in /  1022.7hPa Calm     86% 0in /  0.0mm 47 W/m2
16:02 50.7 °F /  10.4 °C 46.8 °F /  8.2 °C 30.2in /  1022.7hPa ESE 0.9mph /  1.4km/h 1mph /  1.6km/h 86% 0in /  0.0mm 47 W/m2
16:07 50.5 °F /  10.3 °C 46.6 °F /  8.1 °C 30.2in /  1022.4hPa Calm     86% 0in /  0.0mm 46 W/m2
16:12 50.5 °F /  10.3 °C 46.6 °F /  8.1 °C 30.2in /  1022.7hPa Calm   1mph /  1.6km/h 86% 0in /  0.0mm 40 W/m2
16:17 50.4 °F /  10.2 °C 46.4 °F /  8 °C 30.2in /  1022.7hPa ESE 0.9mph /  1.4km/h 1mph /  1.6km/h 86% 0in /  0.0mm 35 W/m2
16:22 50.4 °F /  10.2 °C 46.6 °F /  8.1 °C 30.2in /  1022.7hPa ESE 0.9mph /  1.4km/h 1mph /  1.6km/h 87% 0in /  0.0mm 30 W/m2
16:27 50.2 °F /  10.1 °C 46.4 °F /  8 °C 30.2in /  1022.7hPa Calm     87% 0in /  0.0mm 26 W/m2
16:32 50 °F /  10 °C 46.2 °F /  7.9 °C 30.2in /  1022.7hPa ESE 0.9mph /  1.4km/h 1mph /  1.6km/h 87% 0in /  0.0mm 23 W/m2
16:37 49.8 °F /  9.9 °C 46 °F /  7.8 °C 30.2in /  1022.7hPa ESE 0.9mph /  1.4km/h 1mph /  1.6km/h 87% 0in /  0.0mm 19 W/m2
16:42 49.8 °F /  9.9 °C 46 °F /  7.8 °C 30.2in /  1022.7hPa ESE 0.9mph /  1.4km/h 2mph /  3.2km/h 87% 0in /  0.0mm 16 W/m2
16:47 49.6 °F /  9.8 °C 45.9 °F /  7.7 °C 30.2in /  1022.4hPa ESE 0.9mph /  1.4km/h 1mph /  1.6km/h 87% 0in /  0.0mm 11 W/m2
16:52 49.5 °F /  9.7 °C 46 °F /  7.8 °C 30.2in /  1022.4hPa ESE 0.9mph /  1.4km/h 1mph /  1.6km/h 88% 0in /  0.0mm 7 W/m2
16:57 49.3 °F /  9.6 °C 45.9 °F /  7.7 °C 30.2in /  1022.4hPa ESE 0.9mph /  1.4km/h 1mph /  1.6km/h 88% 0in /  0.0mm 5 W/m2
17:02 49.1 °F /  9.5 °C 45.7 °F /  7.6 °C 30.2in /  1022.4hPa Calm   1mph /  1.6km/h 88% 0in /  0.0mm 0 W/m2
17:07 48.7 °F /  9.3 °C 45.3 °F /  7.4 °C 30.2in /  1022.4hPa Calm     88% 0in /  0.0mm 0 W/m2
17:12 48.6 °F /  9.2 °C 45.1 °F /  7.3 °C 30.2in /  1022.4hPa ESE 0.9mph /  1.4km/h 1mph /  1.6km/h 88% 0in /  0.0mm 0 W/m2
17:17 48.4 °F /  9.1 °C 45.3 °F /  7.4 °C 30.2in /  1022.4hPa Calm     89% 0in /  0.0mm 0 W/m2
17:23 48 °F /  8.9 °C 45 °F /  7.2 °C 30.2in /  1022.4hPa Calm     89% 0in /  0.0mm 0 W/m2
17:28 47.8 °F /  8.8 °C 44.8 °F /  7.1 °C 30.2in /  1022.4hPa Calm     89% 0in /  0.0mm 0 W/m2
17:33 47.7 °F /  8.7 °C 44.6 °F /  7 °C 30.2in /  1022.4hPa ESE 0.9mph /  1.4km/h 1mph /  1.6km/h 89% 0in /  0.0mm 0 W/m2
17:38 47.7 °F /  8.7 °C 45 °F /  7.2 °C 30.2in /  1022.4hPa Calm   1mph /  1.6km/h 90% 0in /  0.0mm 0 W/m2
17:43 47.5 °F /  8.6 °C 44.8 °F /  7.1 °C 30.2in /  1022.4hPa Calm     90% 0in /  0.0mm 0 W/m2
17:48 47.1 °F /  8.4 °C 44.4 °F /  6.9 °C 30.2in /  1022.4hPa Calm   1mph /  1.6km/h 90% 0in /  0.0mm 0 W/m2
17:53 47.1 °F /  8.4 °C 44.6 °F /  7 °C 30.2in /  1022.4hPa Calm   1mph /  1.6km/h 91% 0in /  0.0mm 0 W/m2
17:58 47.1 °F /  8.4 °C 44.6 °F /  7 °C 30.2in /  1022.4hPa Calm     91% 0in /  0.0mm 0 W/m2
18:03 46.9 °F /  8.3 °C 44.4 °F /  6.9 °C 30.2in /  1022.4hPa Calm     91% 0in /  0.0mm 0 W/m2
18:08 46.9 °F /  8.3 °C 44.4 °F /  6.9 °C 30.2in /  1022.4hPa Calm     91% 0in /  0.0mm 0 W/m2
18:13 46.8 °F /  8.2 °C 44.2 °F /  6.8 °C 30.2in /  1022.7hPa Calm     91% 0in /  0.0mm 0 W/m2
18:18 46.8 °F /  8.2 °C 44.2 °F /  6.8 °C 30.2in /  1022.7hPa Calm     91% 0in /  0.0mm 0 W/m2
18:23 46.6 °F /  8.1 °C 44.1 °F /  6.7 °C 30.2in /  1022.7hPa Calm     91% 0in /  0.0mm 0 W/m2
18:28 46.4 °F /  8 °C 43.9 °F /  6.6 °C 30.2in /  1022.7hPa Calm     91% 0in /  0.0mm 0 W/m2
18:33 46.2 °F /  7.9 °C 44.1 °F /  6.7 °C 30.2in /  1022.7hPa Calm     92% 0in /  0.0mm 0 W/m2
18:38 46.2 °F /  7.9 °C 44.1 °F /  6.7 °C 30.2in /  1022.7hPa Calm     92% 0in /  0.0mm 0 W/m2
18:43 46 °F /  7.8 °C 43.9 °F /  6.6 °C 30.2in /  1022.7hPa Calm     92% 0in /  0.0mm 0 W/m2
18:48 45.9 °F /  7.7 °C 43.7 °F /  6.5 °C 30.2in /  1022.7hPa Calm     92% 0in /  0.0mm 0 W/m2
18:53 45.9 °F /  7.7 °C 43.7 °F /  6.5 °C 30.2in /  1022.7hPa Calm     92% 0in /  0.0mm 0 W/m2
18:58 45.9 °F /  7.7 °C 43.9 °F /  6.6 °C 30.2in /  1022.7hPa Calm     93% 0in /  0.0mm 0 W/m2
19:03 45.7 °F /  7.6 °C 43.7 °F /  6.5 °C 30.2in /  1022.7hPa Calm     93% 0in /  0.0mm 0 W/m2
19:08 45.7 °F /  7.6 °C 43.7 °F /  6.5 °C 30.2in /  1022.7hPa Calm     93% 0in /  0.0mm 0 W/m2
19:13 45.5 °F /  7.5 °C 43.5 °F /  6.4 °C 30.2in /  1022.7hPa Calm     93% 0in /  0.0mm 0 W/m2
19:18 45.3 °F /  7.4 °C 43.3 °F /  6.3 °C 30.2in /  1022.7hPa Calm     93% 0in /  0.0mm 0 W/m2
19:23 45.3 °F /  7.4 °C 43.3 °F /  6.3 °C 30.2in /  1022.7hPa Calm     93% 0in /  0.0mm 0 W/m2
19:28 45.3 °F /  7.4 °C 43.3 °F /  6.3 °C 30.2in /  1022.7hPa Calm     93% 0in /  0.0mm 0 W/m2
19:33 45.1 °F /  7.3 °C 43.5 °F /  6.4 °C 30.2in /  1022.7hPa Calm     94% 0in /  0.0mm 0 W/m2
19:38 45.1 °F /  7.3 °C 43.5 °F /  6.4 °C 30.2in /  1022.7hPa Calm     94% 0in /  0.0mm 0 W/m2
19:43 45.1 °F /  7.3 °C 43.2 °F /  6.2 °C 30.2in /  1022.7hPa Calm     93% 0in /  0.0mm 0 W/m2
19:48 45 °F /  7.2 °C 43.3 °F /  6.3 °C 30.2in /  1022.7hPa Calm     94% 0in /  0.0mm 0 W/m2
19:53 45 °F /  7.2 °C 43.3 °F /  6.3 °C 30.2in /  1022.7hPa Calm     94% 0in /  0.0mm 0 W/m2
19:58 45 °F /  7.2 °C 43.3 °F /  6.3 °C 30.2in /  1022.7hPa Calm     94% 0in /  0.0mm 0 W/m2
20:03 44.8 °F /  7.1 °C 43.2 °F /  6.2 °C 30.2in /  1022.7hPa Calm     94% 0in /  0.0mm 0 W/m2
20:08 44.8 °F /  7.1 °C 43.2 °F /  6.2 °C 30.2in /  1022.7hPa Calm     94% 0in /  0.0mm 0 W/m2
20:13 44.6 °F /  7 °C 43 °F /  6.1 °C 30.2in /  1022.7hPa Calm     94% 0in /  0.0mm 0 W/m2
20:18 44.4 °F /  6.9 °C 42.8 °F /  6 °C 30.2in /  1022.7hPa Calm     94% 0in /  0.0mm 0 W/m2
20:23 44.4 °F /  6.9 °C 42.8 °F /  6 °C 30.2in /  1022.7hPa Calm     94% 0in /  0.0mm 0 W/m2
20:28 44.2 °F /  6.8 °C 42.6 °F /  5.9 °C 30.2in /  1022.7hPa Calm     94% 0in /  0.0mm 0 W/m2
20:33 44.1 °F /  6.7 °C 42.4 °F /  5.8 °C 30.2in /  1023.0hPa Calm     94% 0in /  0.0mm 0 W/m2
20:39 44.1 °F /  6.7 °C 42.4 °F /  5.8 °C 30.2in /  1022.7hPa Calm     94% 0in /  0.0mm 0 W/m2
20:44 43.9 °F /  6.6 °C 42.3 °F /  5.7 °C 30.2in /  1022.7hPa Calm     94% 0in /  0.0mm 0 W/m2
20:49 43.9 °F /  6.6 °C 42.3 °F /  5.7 °C 30.2in /  1022.7hPa Calm     94% 0in /  0.0mm 0 W/m2
20:54 43.9 °F /  6.6 °C 42.6 °F /  5.9 °C 30.2in /  1022.7hPa Calm     95% 0in /  0.0mm 0 W/m2
20:59 43.9 °F /  6.6 °C 42.6 °F /  5.9 °C 30.2in /  1022.7hPa Calm     95% 0in /  0.0mm 0 W/m2
21:04 44.1 °F /  6.7 °C 42.8 °F /  6 °C 30.2in /  1022.7hPa Calm     95% 0in /  0.0mm 0 W/m2
21:09 43.9 °F /  6.6 °C 42.6 °F /  5.9 °C 30.2in /  1022.7hPa Calm     95% 0in /  0.0mm 0 W/m2
21:14 43.9 °F /  6.6 °C 42.6 °F /  5.9 °C 30.2in /  1022.7hPa Calm     95% 0in /  0.0mm 0 W/m2
21:19 43.9 °F /  6.6 °C 42.6 °F /  5.9 °C 30.2in /  1022.7hPa Calm     95% 0in /  0.0mm 0 W/m2
21:24 43.9 °F /  6.6 °C 42.6 °F /  5.9 °C 30.2in /  1022.7hPa Calm     95% 0in /  0.0mm 0 W/m2
21:29 43.9 °F /  6.6 °C 42.6 °F /  5.9 °C 30.2in /  1022.7hPa Calm     95% 0in /  0.0mm 0 W/m2
21:34 43.9 °F /  6.6 °C 42.6 °F /  5.9 °C 30.2in /  1023.0hPa Calm     95% 0in /  0.0mm 0 W/m2
21:39 43.9 °F /  6.6 °C 42.6 °F /  5.9 °C 30.2in /  1023.0hPa Calm     95% 0in /  0.0mm 0 W/m2
21:44 43.9 °F /  6.6 °C 42.6 °F /  5.9 °C 30.2in /  1023.0hPa Calm     95% 0in /  0.0mm 0 W/m2
21:49 43.9 °F /  6.6 °C 42.6 °F /  5.9 °C 30.2in /  1022.7hPa Calm     95% 0in /  0.0mm 0 W/m2
21:54 43.7 °F /  6.5 °C 42.4 °F /  5.8 °C 30.2in /  1022.7hPa Calm     95% 0in /  0.0mm 0 W/m2
21:59 43.5 °F /  6.4 °C 42.3 °F /  5.7 °C 30.2in /  1023.0hPa Calm     95% 0in /  0.0mm 0 W/m2
22:04 43.5 °F /  6.4 °C 42.3 °F /  5.7 °C 30.2in /  1023.0hPa Calm     95% 0in /  0.0mm 0 W/m2
22:09 43.3 °F /  6.3 °C 42.1 °F /  5.6 °C 30.2in /  1023.0hPa Calm     95% 0in /  0.0mm 0 W/m2
22:14 43.3 °F /  6.3 °C 42.1 °F /  5.6 °C 30.2in /  1023.0hPa Calm     95% 0in /  0.0mm 0 W/m2
22:19 43.3 °F /  6.3 °C 42.1 °F /  5.6 °C 30.2in /  1023.0hPa Calm     95% 0in /  0.0mm 0 W/m2
22:24 43.3 °F /  6.3 °C 42.1 °F /  5.6 °C 30.2in /  1023.0hPa Calm     95% 0in /  0.0mm 0 W/m2
22:29 43.2 °F /  6.2 °C 41.9 °F /  5.5 °C 30.2in /  1023.0hPa Calm     95% 0in /  0.0mm 0 W/m2
22:34 43.2 °F /  6.2 °C 41.9 °F /  5.5 °C 30.2in /  1023.0hPa Calm     95% 0in /  0.0mm 0 W/m2
22:39 43.2 °F /  6.2 °C 41.9 °F /  5.5 °C 30.2in /  1023.0hPa Calm     95% 0in /  0.0mm 0 W/m2
22:44 43 °F /  6.1 °C 41.7 °F /  5.4 °C 30.2in /  1023.0hPa Calm     95% 0in /  0.0mm 0 W/m2
22:49 43 °F /  6.1 °C 41.7 °F /  5.4 °C 30.2in /  1023.0hPa Calm     95% 0in /  0.0mm 0 W/m2
22:54 42.8 °F /  6 °C 41.5 °F /  5.3 °C 30.2in /  1023.0hPa Calm     95% 0in /  0.0mm 0 W/m2
22:59 42.8 °F /  6 °C 41.5 °F /  5.3 °C 30.2in /  1023.0hPa Calm     95% 0in /  0.0mm 0 W/m2
23:04 42.6 °F /  5.9 °C 41.4 °F /  5.2 °C 30.2in /  1023.0hPa Calm     95% 0in /  0.0mm 0 W/m2
23:09 42.6 °F /  5.9 °C 41.4 °F /  5.2 °C 30.2in /  1023.0hPa Calm     95% 0in /  0.0mm 0 W/m2
23:14 42.6 °F /  5.9 °C 41.4 °F /  5.2 °C 30.2in /  1023.0hPa Calm     95% 0in /  0.0mm 0 W/m2
23:19 42.6 °F /  5.9 °C 41.5 °F /  5.3 °C 30.2in /  1023.0hPa Calm     96% 0in /  0.0mm 0 W/m2
23:24 42.6 °F /  5.9 °C 41.5 °F /  5.3 °C 30.2in /  1023.4hPa Calm     96% 0in /  0.0mm 0 W/m2
23:29 42.4 °F /  5.8 °C 41.4 °F /  5.2 °C 30.2in /  1023.0hPa Calm     96% 0in /  0.0mm 0 W/m2
23:34 42.4 °F /  5.8 °C 41.4 °F /  5.2 °C 30.2in /  1023.0hPa Calm     96% 0in /  0.0mm 0 W/m2
23:39 42.4 °F /  5.8 °C 41.4 °F /  5.2 °C 30.2in /  1023.0hPa Calm     96% 0in /  0.0mm 0 W/m2
23:44 42.4 °F /  5.8 °C 41.4 °F /  5.2 °C 30.2in /  1023.0hPa Calm     96% 0in /  0.0mm 0 W/m2
23:49 42.6 °F /  5.9 °C 41.5 °F /  5.3 °C 30.2in /  1023.0hPa Calm     96% 0in /  0.0mm 0 W/m2
23:54 42.6 °F /  5.9 °C 41.5 °F /  5.3 °C 30.2in /  1023.0hPa Calm     96% 0in /  0.0mm 0 W/m2
23:59 42.6 °F /  5.9 °C 41.5 °F /  5.3 °C 30.2in /  1023.0hPa Calm     96% 0in /  0.0mm 0 W/m2
Juneau County Weather
Compliments of Weather Underground - 4 mb